Time;durP1;ratioP1;P1;durP2;ratioP2;P2;SDS_P1;SDS_P2;PMS_P1;PMS_P2;Temp;Humidity;BMP_temperature;BMP_pressure;BME280_temperature;BME280_humidity;BME280_pressure;Samples;Min_cycle;Max_cycle;Signal;HPM_P1;HPM_P2
2020/12/08 00:00:05;;;;;;;27.38;18.67;;;5.90;99.90;;;;;;5043030;28;20199;-83
2020/12/08 00:02:32;;;;;;;22.95;17.77;;;6.00;99.90;;;;;;5044020;28;20238;-83
2020/12/08 00:04:58;;;;;;;24.60;18.30;;;6.00;99.90;;;;;;5044337;28;20748;-83
2020/12/08 00:07:24;;;;;;;26.98;19.35;;;5.90;99.90;;;;;;5045171;28;20235;-83
2020/12/08 00:09:51;;;;;;;23.17;18.55;;;6.00;99.90;;;;;;5056586;28;20230;-83
2020/12/08 00:12:17;;;;;;;23.00;18.70;;;5.90;99.90;;;;;;5060025;28;20215;-83
2020/12/08 00:14:43;;;;;;;25.45;19.65;;;5.90;99.90;;;;;;5057307;28;20262;-84
2020/12/08 00:17:11;;;;;;;31.27;21.00;;;5.90;99.90;;;;;;5047819;28;20271;-84
2020/12/08 00:19:37;;;;;;;32.85;22.25;;;5.90;99.90;;;;;;5046221;28;20249;-82
2020/12/08 00:22:03;;;;;;;32.38;21.60;;;5.90;99.90;;;;;;5046152;28;20235;-83
2020/12/08 00:24:30;;;;;;;29.58;21.52;;;6.00;99.90;;;;;;5046939;28;20266;-80
2020/12/08 00:26:56;;;;;;;29.02;21.10;;;6.00;99.90;;;;;;5048101;28;20267;-80
2020/12/08 00:29:23;;;;;;;33.35;21.58;;;6.10;99.90;;;;;;5048895;28;20204;-82
2020/12/08 00:31:49;;;;;;;33.25;24.40;;;6.10;99.90;;;;;;5048577;28;20295;-80
2020/12/08 00:34:16;;;;;;;29.25;21.40;;;6.10;99.90;;;;;;5048940;28;20216;-82
2020/12/08 00:36:43;;;;;;;33.15;23.08;;;6.10;99.90;;;;;;5046781;28;20208;-82
2020/12/08 00:39:10;;;;;;;30.30;22.70;;;6.10;99.90;;;;;;5053965;28;20204;-81
2020/12/08 00:41:36;;;;;;;35.85;25.40;;;6.10;99.90;;;;;;5054432;28;20266;-83
2020/12/08 00:44:03;;;;;;;32.83;25.65;;;6.10;99.90;;;;;;5051940;28;20251;-81
2020/12/08 00:46:30;;;;;;;35.55;23.50;;;6.00;99.90;;;;;;5047638;28;20268;-82
2020/12/08 00:48:56;;;;;;;33.30;24.27;;;6.00;99.90;;;;;;5045016;28;20215;-81
2020/12/08 00:51:23;;;;;;;37.75;25.42;;;6.00;99.90;;;;;;5046139;28;20267;-84
2020/12/08 00:53:49;;;;;;;32.42;23.50;;;5.90;99.90;;;;;;5047074;28;20283;-81
2020/12/08 00:56:16;;;;;;;34.20;24.52;;;6.00;99.90;;;;;;5046570;28;20204;-81
2020/12/08 00:58:42;;;;;;;40.10;24.20;;;6.00;99.90;;;;;;5045686;28;20219;-83
2020/12/08 01:01:09;;;;;;;31.73;24.70;;;6.00;99.90;;;;;;5043985;28;20263;-83
2020/12/08 01:03:37;;;;;;;36.75;25.77;;;5.90;99.90;;;;;;5041768;28;20291;-84
2020/12/08 01:06:03;;;;;;;38.88;25.20;;;5.90;99.90;;;;;;5041853;28;20710;-84
2020/12/08 01:08:31;;;;;;;35.08;26.25;;;5.80;99.90;;;;;;5040630;28;20209;-84
2020/12/08 01:10:57;;;;;;;39.72;26.10;;;5.80;99.90;;;;;;5041809;28;20714;-85
2020/12/08 01:13:23;;;;;;;38.58;26.13;;;5.80;99.90;;;;;;5041344;28;20314;-83
2020/12/08 01:15:50;;;;;;;39.42;25.17;;;5.80;99.90;;;;;;5041226;28;20210;-83
2020/12/08 01:18:17;;;;;;;41.55;28.42;;;5.80;99.90;;;;;;5041422;28;20300;-83
2020/12/08 01:20:43;;;;;;;40.13;26.98;;;5.70;99.90;;;;;;5042736;28;20196;-84
2020/12/08 01:23:10;;;;;;;43.58;28.00;;;5.70;99.90;;;;;;5043780;28;20298;-83
2020/12/08 01:25:38;;;;;;;45.38;27.75;;;5.60;99.90;;;;;;5043032;28;20334;-83
2020/12/08 01:28:05;;;;;;;38.00;27.73;;;5.60;99.90;;;;;;5044942;28;20211;-83
2020/12/08 01:30:31;;;;;;;40.13;26.60;;;5.60;99.90;;;;;;5044226;28;20223;-84
2020/12/08 01:32:57;;;;;;;41.00;26.60;;;5.60;99.90;;;;;;5043400;28;20262;-83
2020/12/08 01:35:24;;;;;;;45.22;28.45;;;5.60;99.90;;;;;;5042527;28;20210;-82
2020/12/08 01:37:50;;;;;;;40.78;27.88;;;5.70;99.90;;;;;;5041932;28;20290;-84
2020/12/08 01:40:16;;;;;;;39.53;28.50;;;5.60;99.90;;;;;;5041068;28;20203;-83
2020/12/08 01:42:43;;;;;;;46.17;29.15;;;5.60;99.90;;;;;;5040802;28;20203;-83
2020/12/08 01:45:10;;;;;;;44.72;29.08;;;5.70;99.90;;;;;;5041208;28;20200;-81
2020/12/08 01:47:36;;;;;;;37.42;26.90;;;5.70;99.90;;;;;;5039357;28;20604;-81
2020/12/08 01:50:03;;;;;;;43.40;28.67;;;5.70;99.90;;;;;;5039936;28;20226;-81
2020/12/08 01:52:32;;;;;;;35.25;26.90;;;5.70;99.90;;;;;;5038758;28;20250;-82
2020/12/08 01:55:02;;;;;;;41.03;28.25;;;5.70;99.90;;;;;;5038087;28;20580;-82
2020/12/08 01:57:29;;;;;;;38.53;26.73;;;5.70;99.90;;;;;;5039435;28;20203;-81
2020/12/08 01:59:56;;;;;;;42.63;28.50;;;5.70;99.90;;;;;;5038626;28;20225;-80
2020/12/08 02:02:24;;;;;;;43.60;29.92;;;5.70;99.90;;;;;;5038826;28;20211;-81
2020/12/08 02:04:51;;;;;;;46.05;27.27;;;5.70;99.90;;;;;;5039577;28;20720;-82
2020/12/08 02:07:17;;;;;;;43.22;26.73;;;5.70;99.90;;;;;;5040152;28;20580;-82
2020/12/08 02:09:43;;;;;;;39.25;28.30;;;5.70;99.90;;;;;;5039012;28;20210;-81
2020/12/08 02:12:10;;;;;;;40.38;27.20;;;5.70;99.90;;;;;;5038856;28;20206;-82
2020/12/08 02:14:36;;;;;;;42.22;29.17;;;5.60;99.90;;;;;;5040574;28;20303;-82
2020/12/08 02:17:03;;;;;;;50.30;31.08;;;5.70;99.90;;;;;;5039243;28;20271;-82
2020/12/08 02:19:31;;;;;;;44.03;29.88;;;5.70;99.90;;;;;;5039566;28;20199;-81
2020/12/08 02:21:58;;;;;;;45.55;29.30;;;5.70;99.90;;;;;;5039105;28;20235;-81
2020/12/08 02:24:25;;;;;;;42.72;29.83;;;5.70;99.90;;;;;;5038957;28;20334;-81
2020/12/08 02:26:51;;;;;;;53.22;30.27;;;5.60;99.90;;;;;;5039767;28;20628;-81
2020/12/08 02:29:17;;;;;;;54.92;33.75;;;5.70;99.90;;;;;;5039483;28;20735;-81
2020/12/08 02:31:44;;;;;;;50.72;30.52;;;5.70;99.90;;;;;;5039625;28;20310;-82
2020/12/08 02:34:10;;;;;;;44.92;29.17;;;5.80;99.90;;;;;;5039886;28;20656;-81
2020/12/08 02:36:37;;;;;;;51.13;29.70;;;5.80;99.90;;;;;;5044144;28;20265;-80
2020/12/08 02:39:04;;;;;;;48.75;28.95;;;5.80;99.90;;;;;;5051124;28;20254;-82
2020/12/08 02:41:30;;;;;;;45.15;28.75;;;5.70;99.90;;;;;;5051817;28;20222;-81
2020/12/08 02:43:56;;;;;;;42.47;29.58;;;5.70;99.90;;;;;;5051164;28;20230;-81
2020/12/08 02:46:23;;;;;;;42.67;28.45;;;5.70;99.90;;;;;;5050046;28;20263;-81
2020/12/08 02:48:49;;;;;;;51.70;31.45;;;5.70;99.90;;;;;;5048956;28;20214;-82
2020/12/08 02:51:17;;;;;;;47.88;29.55;;;5.70;99.90;;;;;;5047897;28;20219;-82
2020/12/08 02:53:43;;;;;;;43.05;28.30;;;5.70;99.90;;;;;;5043933;28;20227;-81
2020/12/08 02:56:10;;;;;;;50.75;30.10;;;5.70;99.90;;;;;;5044097;28;20203;-81
2020/12/08 02:58:37;;;;;;;48.90;31.45;;;5.70;99.90;;;;;;5042898;28;20208;-82
2020/12/08 03:01:03;;;;;;;52.90;30.48;;;5.70;99.90;;;;;;5046743;28;20199;-81
2020/12/08 03:03:30;;;;;;;42.25;28.98;;;5.70;99.90;;;;;;5049437;28;20287;-81
2020/12/08 03:05:56;;;;;;;44.95;30.38;;;5.70;99.90;;;;;;5051785;28;20279;-80
2020/12/08 03:08:23;;;;;;;46.15;30.88;;;5.70;99.90;;;;;;5049733;28;20204;-81
2020/12/08 03:10:50;;;;;;;47.28;29.13;;;5.70;99.90;;;;;;5048611;28;20307;-81
2020/12/08 03:13:17;;;;;;;47.45;31.58;;;5.70;99.90;;;;;;5044565;28;20243;-81
2020/12/08 03:15:43;;;;;;;49.17;31.55;;;5.70;99.90;;;;;;5041714;28;20215;-81
2020/12/08 03:18:10;;;;;;;45.15;30.38;;;5.70;99.90;;;;;;5040557;28;20271;-82
2020/12/08 03:20:36;;;;;;;49.33;30.70;;;5.70;99.90;;;;;;5041725;28;20204;-82
2020/12/08 03:23:02;;;;;;;46.90;30.85;;;5.70;99.90;;;;;;5056379;22;20314;-76
2020/12/08 03:25:29;;;;;;;49.47;30.02;;;5.70;99.90;;;;;;5034662;28;20222;-77
2020/12/08 03:27:55;;;;;;;51.08;30.45;;;5.70;99.90;;;;;;5035489;28;20561;-77
2020/12/08 03:30:22;;;;;;;47.72;30.95;;;5.70;99.90;;;;;;5034623;28;20234;-77
2020/12/08 03:32:48;;;;;;;47.13;29.83;;;5.60;99.90;;;;;;5035055;28;20294;-77
2020/12/08 03:35:15;;;;;;;50.60;31.42;;;5.60;99.90;;;;;;5035068;28;20314;-77
2020/12/08 03:37:41;;;;;;;47.60;32.55;;;5.60;99.90;;;;;;5034623;28;20692;-77
2020/12/08 03:40:07;;;;;;;47.13;32.03;;;5.70;99.90;;;;;;5035553;28;20542;-77
2020/12/08 03:42:33;;;;;;;47.67;29.38;;;5.60;99.90;;;;;;5039875;28;20204;-77
2020/12/08 03:45:00;;;;;;;51.65;31.85;;;5.70;99.90;;;;;;5046259;28;20234;-76
2020/12/08 03:47:27;;;;;;;49.80;32.30;;;5.60;99.90;;;;;;5038993;28;20234;-77
2020/12/08 03:49:53;;;;;;;50.20;30.05;;;5.60;99.90;;;;;;5035729;28;20195;-77
2020/12/08 03:52:20;;;;;;;45.38;31.73;;;5.60;99.90;;;;;;5035103;28;20204;-77
2020/12/08 03:54:46;;;;;;;46.50;31.70;;;5.70;99.90;;;;;;5034911;28;20227;-77
2020/12/08 03:57:13;;;;;;;50.90;30.13;;;5.70;99.90;;;;;;5034394;28;20208;-77
2020/12/08 03:59:39;;;;;;;44.25;30.42;;;5.70;99.90;;;;;;5034498;28;20716;-77
2020/12/08 04:02:05;;;;;;;45.10;28.48;;;5.70;99.90;;;;;;5035156;28;20202;-78
2020/12/08 04:04:32;;;;;;;54.25;31.02;;;5.70;99.90;;;;;;5035142;28;20306;-77
2020/12/08 04:06:59;;;;;;;46.47;30.77;;;5.70;99.90;;;;;;5034914;28;20657;-76
2020/12/08 04:09:25;;;;;;;40.78;28.92;;;5.70;99.90;;;;;;5034718;28;20204;-77
2020/12/08 04:11:51;;;;;;;46.47;29.70;;;5.70;99.90;;;;;;5034421;28;20231;-77
2020/12/08 04:14:17;;;;;;;47.05;31.58;;;5.70;99.90;;;;;;5035087;28;20300;-77
2020/12/08 04:16:45;;;;;;;51.20;31.50;;;5.60;99.90;;;;;;5036473;28;20666;-77
2020/12/08 04:19:11;;;;;;;44.30;30.25;;;5.70;99.90;;;;;;5039478;28;20207;-77
2020/12/08 04:21:38;;;;;;;49.67;29.50;;;5.70;99.90;;;;;;5039987;28;20204;-77
2020/12/08 04:24:05;;;;;;;50.95;29.90;;;5.70;99.90;;;;;;5038192;28;20318;-77
2020/12/08 04:26:32;;;;;;;45.17;29.80;;;5.80;99.90;;;;;;5038321;28;20214;-77
2020/12/08 04:28:59;;;;;;;44.47;31.10;;;5.80;99.90;;;;;;5038146;28;20199;-76
2020/12/08 04:31:25;;;;;;;43.53;30.90;;;5.80;99.90;;;;;;5038410;28;20582;-77
2020/12/08 04:33:53;;;;;;;51.17;30.48;;;5.80;99.90;;;;;;5037781;28;20715;-76
2020/12/08 04:36:20;;;;;;;49.28;29.85;;;5.80;99.90;;;;;;5038006;28;20294;-77
2020/12/08 04:38:48;;;;;;;55.83;35.10;;;5.80;99.90;;;;;;5038214;28;20216;-77
2020/12/08 04:41:20;;;;;;;47.80;30.80;;;5.70;99.90;;;;;;5037667;28;20211;-76
2020/12/08 04:43:47;;;;;;;50.97;31.83;;;5.70;99.90;;;;;;5037960;28;20228;-77
2020/12/08 04:46:13;;;;;;;46.53;30.95;;;5.70;99.90;;;;;;5037870;28;20571;-77
2020/12/08 04:48:40;;;;;;;49.45;31.63;;;5.70;99.90;;;;;;5037659;28;20203;-77
2020/12/08 04:51:06;;;;;;;47.88;31.65;;;5.70;99.90;;;;;;5037882;28;20220;-77
2020/12/08 04:53:33;;;;;;;46.20;29.38;;;5.70;99.90;;;;;;5037983;28;20238;-77
2020/12/08 04:56:00;;;;;;;48.95;31.30;;;5.70;99.90;;;;;;5037010;28;20208;-77
2020/12/08 04:58:28;;;;;;;48.58;31.33;;;5.80;99.90;;;;;;5036717;28;20443;-77
2020/12/08 05:00:54;;;;;;;47.30;31.25;;;5.70;99.90;;;;;;5037075;28;20195;-77
2020/12/08 05:03:24;;;;;;;50.50;33.78;;;5.70;99.90;;;;;;5035775;28;20818;-77
2020/12/08 05:05:51;;;;;;;44.30;30.30;;;5.80;99.90;;;;;;5036607;28;20208;-78
2020/12/08 05:08:17;;;;;;;50.88;30.38;;;5.80;99.90;;;;;;5036963;28;20200;-78
2020/12/08 05:10:44;;;;;;;49.38;31.00;;;5.80;99.90;;;;;;5036913;28;20219;-77
2020/12/08 05:13:17;;;;;;;49.60;31.58;;;5.80;99.90;;;;;;5035942;28;20617;-77
2020/12/08 05:15:44;;;;;;;44.08;30.52;;;5.70;99.90;;;;;;5037862;28;20212;-77
2020/12/08 05:18:11;;;;;;;51.58;30.48;;;5.70;99.90;;;;;;5036260;28;20287;-77
2020/12/08 05:20:38;;;;;;;49.55;30.35;;;5.70;99.90;;;;;;5036647;28;20668;-77
2020/12/08 05:23:05;;;;;;;48.70;30.73;;;5.70;99.90;;;;;;5036126;28;20200;-77
2020/12/08 05:25:32;;;;;;;49.00;30.33;;;5.70;99.90;;;;;;5036951;28;20652;-77
2020/12/08 05:28:00;;;;;;;47.53;30.67;;;5.70;99.90;;;;;;5036526;28;20288;-77
2020/12/08 05:30:28;;;;;;;44.63;31.30;;;5.80;99.90;;;;;;5035929;28;20230;-77
2020/12/08 05:32:55;;;;;;;49.15;31.23;;;5.70;99.90;;;;;;5036226;28;20239;-77
2020/12/08 05:35:23;;;;;;;48.30;30.52;;;5.70;99.90;;;;;;5036094;28;20199;-77
2020/12/08 05:37:51;;;;;;;51.30;32.05;;;5.60;99.90;;;;;;5035980;28;20204;-77
2020/12/08 05:40:19;;;;;;;50.33;31.52;;;5.70;99.90;;;;;;5035876;28;20520;-77
2020/12/08 05:42:47;;;;;;;47.22;30.08;;;5.60;99.90;;;;;;5036312;28;20235;-77
2020/12/08 05:45:15;;;;;;;50.38;33.03;;;5.60;99.90;;;;;;5037872;28;20524;-77
2020/12/08 05:47:45;;;;;;;49.88;32.30;;;5.60;99.90;;;;;;5036846;28;20554;-77
2020/12/08 05:50:12;;;;;;;51.10;32.10;;;5.60;99.90;;;;;;5035705;28;20219;-77
2020/12/08 05:52:40;;;;;;;46.97;28.65;;;5.60;99.90;;;;;;5036068;28;20582;-77
2020/12/08 05:55:11;;;;;;;51.33;31.50;;;5.60;99.90;;;;;;5035149;28;20314;-77
2020/12/08 05:57:38;;;;;;;48.88;33.80;;;5.60;99.90;;;;;;5034480;28;20464;-78
2020/12/08 06:00:06;;;;;;;46.15;30.60;;;5.60;99.90;;;;;;5036068;28;20442;-78
2020/12/08 06:02:33;;;;;;;47.45;31.90;;;5.60;99.90;;;;;;5037386;28;20238;-76
2020/12/08 06:05:00;;;;;;;46.70;30.75;;;5.60;99.90;;;;;;5037391;28;20696;-77
2020/12/08 06:07:31;;;;;;;46.13;30.60;;;5.60;99.90;;;;;;5035739;28;20204;-78
2020/12/08 06:10:08;;;;;;;53.97;30.23;;;5.60;99.90;;;;;;5038096;28;20290;-77
2020/12/08 06:12:36;;;;;;;49.77;33.47;;;5.60;99.90;;;;;;5035071;28;20441;-78
2020/12/08 06:15:13;;;;;;;47.75;31.23;;;5.60;99.90;;;;;;5036897;28;20454;-77
2020/12/08 06:17:44;;;;;;;48.38;32.35;;;5.70;99.90;;;;;;5038766;28;20196;-77
2020/12/08 06:20:12;;;;;;;51.73;32.63;;;5.60;99.90;;;;;;5035443;28;21019;-77
2020/12/08 06:22:38;;;;;;;46.08;31.30;;;5.60;99.90;;;;;;5035570;28;20446;-77
2020/12/08 06:25:05;;;;;;;50.13;32.72;;;5.70;99.90;;;;;;5036770;28;20231;-77
2020/12/08 06:27:32;;;;;;;42.60;28.90;;;5.60;99.90;;;;;;5036457;28;20303;-77
2020/12/08 06:29:58;;;;;;;47.80;30.27;;;5.60;99.90;;;;;;5036073;28;20239;-77
2020/12/08 06:32:29;;;;;;;54.70;31.35;;;5.70;99.90;;;;;;5036040;28;20227;-77
2020/12/08 06:35:09;;;;;;;53.50;31.45;;;5.70;99.90;;;;;;5035828;28;20306;-77
2020/12/08 06:37:42;;;;;;;45.22;30.65;;;5.70;99.90;;;;;;5035728;28;20251;-77
2020/12/08 06:40:10;;;;;;;45.83;28.70;;;5.60;99.90;;;;;;5035303;28;20192;-77
2020/12/08 06:42:36;;;;;;;49.80;30.70;;;5.70;99.90;;;;;;5035747;28;20203;-76
2020/12/08 06:45:10;;;;;;;48.25;31.67;;;5.70;99.90;;;;;;5036335;28;20235;-76
2020/12/08 06:47:37;;;;;;;46.05;29.92;;;5.60;99.90;;;;;;5036540;28;20290;-78
2020/12/08 06:50:06;;;;;;;46.83;29.88;;;5.70;99.90;;;;;;5035476;28;20548;-78
2020/12/08 06:52:33;;;;;;;47.33;32.00;;;5.70;99.90;;;;;;5035322;28;20314;-78
2020/12/08 06:55:01;;;;;;;45.75;30.75;;;5.60;99.90;;;;;;5035332;28;20290;-76
2020/12/08 06:57:28;;;;;;;53.53;32.13;;;5.60;99.90;;;;;;5035703;28;20661;-77
2020/12/08 07:00:03;;;;;;;56.85;30.80;;;5.60;99.90;;;;;;5035340;28;20632;-77
2020/12/08 07:02:29;;;;;;;44.53;28.60;;;5.60;99.90;;;;;;5034942;28;20690;-78
2020/12/08 07:05:00;;;;;;;45.75;28.77;;;5.60;99.90;;;;;;5035403;28;20219;-78
2020/12/08 07:07:27;;;;;;;49.80;29.23;;;5.60;99.90;;;;;;5035763;28;20260;-77
2020/12/08 07:09:54;;;;;;;44.80;29.45;;;5.60;99.90;;;;;;5037567;28;20672;-77
2020/12/08 07:12:21;;;;;;;50.00;29.25;;;5.60;99.90;;;;;;5038037;28;20799;-77
2020/12/08 07:14:57;;;;;;;42.97;29.52;;;5.60;99.90;;;;;;5037979;28;20230;-77
2020/12/08 07:17:29;;;;;;;39.20;27.42;;;5.60;99.90;;;;;;5035668;28;20230;-77
2020/12/08 07:19:55;;;;;;;48.35;30.92;;;5.70;99.90;;;;;;5035884;28;20556;-77
2020/12/08 07:22:22;;;;;;;42.08;28.95;;;5.60;99.90;;;;;;5036658;28;20199;-77
2020/12/08 07:24:48;;;;;;;42.22;29.75;;;5.60;99.90;;;;;;5035834;28;20270;-77
2020/12/08 07:27:15;;;;;;;51.10;30.40;;;5.60;99.90;;;;;;5035429;28;20204;-77
2020/12/08 07:29:42;;;;;;;43.80;29.27;;;5.60;99.90;;;;;;5035143;28;20371;-77
2020/12/08 07:32:08;;;;;;;48.08;31.60;;;5.60;99.90;;;;;;5036001;28;20596;-77
2020/12/08 07:34:35;;;;;;;45.97;29.10;;;5.50;99.90;;;;;;5035704;28;20223;-77
2020/12/08 07:37:01;;;;;;;47.85;30.85;;;5.50;99.90;;;;;;5035059;28;20207;-77
2020/12/08 07:39:29;;;;;;;49.42;30.20;;;5.50;99.90;;;;;;5035269;28;20271;-77
2020/12/08 07:42:03;;;;;;;45.33;29.15;;;5.60;99.90;;;;;;5036192;28;20250;-77
2020/12/08 07:44:29;;;;;;;52.60;29.25;;;5.60;99.90;;;;;;5034711;28;20223;-78
2020/12/08 07:46:57;;;;;;;49.92;31.08;;;5.60;99.90;;;;;;5035588;28;20698;-78
2020/12/08 07:49:23;;;;;;;49.75;30.90;;;5.50;99.90;;;;;;5036412;28;20204;-77
2020/12/08 07:51:50;;;;;;;48.78;32.05;;;5.60;99.90;;;;;;5037038;28;20219;-77
2020/12/08 07:54:17;;;;;;;55.28;29.55;;;5.60;99.90;;;;;;5042192;28;20223;-77
2020/12/08 07:56:44;;;;;;;47.95;29.58;;;5.60;99.90;;;;;;5039964;28;20283;-77
2020/12/08 07:59:10;;;;;;;46.95;29.27;;;5.50;99.90;;;;;;5039803;28;20210;-77
2020/12/08 08:01:41;;;;;;;48.13;29.80;;;5.60;99.90;;;;;;5038871;28;20617;-77
2020/12/08 08:04:08;;;;;;;52.78;31.15;;;5.60;99.90;;;;;;5038451;28;20308;-77
2020/12/08 08:06:35;;;;;;;45.35;28.25;;;5.60;99.90;;;;;;5039582;28;20622;-77
2020/12/08 08:09:05;;;;;;;46.55;28.33;;;5.60;99.90;;;;;;5039235;28;20219;-77
2020/12/08 08:11:32;;;;;;;44.38;29.48;;;5.50;99.90;;;;;;5038747;28;20640;-77
2020/12/08 08:13:58;;;;;;;47.72;30.63;;;5.60;99.90;;;;;;5038644;28;20223;-77
2020/12/08 08:16:24;;;;;;;46.03;29.85;;;5.50;99.90;;;;;;5038354;28;20213;-77
2020/12/08 08:18:50;;;;;;;44.40;30.10;;;5.50;99.90;;;;;;5038373;28;20192;-78
2020/12/08 08:21:19;;;;;;;52.85;29.30;;;5.50;99.90;;;;;;5037656;28;20210;-78
2020/12/08 08:23:45;;;;;;;45.30;29.13;;;5.60;99.90;;;;;;5037569;28;20231;-78
2020/12/08 08:26:12;;;;;;;46.85;31.38;;;5.50;99.90;;;;;;5038094;28;20615;-77
2020/12/08 08:28:39;;;;;;;53.72;30.83;;;5.50;99.90;;;;;;5038043;28;20199;-77
2020/12/08 08:31:05;;;;;;;50.22;31.80;;;5.50;99.90;;;;;;5037540;28;20561;-77
2020/12/08 08:33:31;;;;;;;41.50;29.42;;;5.40;99.90;;;;;;5037469;28;20314;-77
2020/12/08 08:35:58;;;;;;;51.38;30.08;;;5.40;99.90;;;;;;5037491;28;20274;-77
2020/12/08 08:38:26;;;;;;;47.85;30.75;;;5.50;99.90;;;;;;5039976;28;20235;-77
2020/12/08 08:40:53;;;;;;;49.92;31.30;;;5.40;99.90;;;;;;5038895;28;20613;-77
2020/12/08 08:43:19;;;;;;;48.88;30.65;;;5.40;99.90;;;;;;5040471;28;20223;-77
2020/12/08 08:45:46;;;;;;;45.05;27.92;;;5.40;99.90;;;;;;5038557;28;20235;-76
2020/12/08 08:48:12;;;;;;;45.60;29.77;;;5.30;99.90;;;;;;5037969;28;20251;-77
2020/12/08 08:50:38;;;;;;;47.15;29.70;;;5.20;99.90;;;;;;5037673;28;20207;-76
2020/12/08 08:53:05;;;;;;;45.40;31.33;;;5.30;99.90;;;;;;5037804;28;20199;-77
2020/12/08 08:55:32;;;;;;;49.20;32.38;;;5.30;99.90;;;;;;5038059;28;20639;-77
2020/12/08 08:57:58;;;;;;;48.97;31.27;;;5.40;99.90;;;;;;5037025;28;20693;-77
2020/12/08 09:00:24;;;;;;;47.15;30.95;;;5.20;99.90;;;;;;5037082;28;20210;-77
2020/12/08 09:02:51;;;;;;;103.30;62.33;;;5.30;99.90;;;;;;5040595;28;20294;-78
2020/12/08 09:05:17;;;;;;;79.13;50.75;;;5.30;99.90;;;;;;5038768;28;20196;-77
2020/12/08 09:07:43;;;;;;;73.97;46.42;;;5.30;99.90;;;;;;5038360;28;20292;-77
2020/12/08 09:10:09;;;;;;;62.05;42.15;;;5.30;99.90;;;;;;5039563;28;20188;-77
2020/12/08 09:12:37;;;;;;;68.00;44.83;;;5.40;99.90;;;;;;5038293;28;20219;-77
2020/12/08 09:15:05;;;;;;;99.22;77.50;;;5.40;99.90;;;;;;5040134;28;20234;-77
2020/12/08 09:17:31;;;;;;;63.88;47.42;;;5.30;99.90;;;;;;5038933;28;20207;-77
2020/12/08 09:19:57;;;;;;;59.35;40.80;;;5.40;99.90;;;;;;5037519;28;20207;-77
2020/12/08 09:22:24;;;;;;;68.03;55.30;;;5.30;99.90;;;;;;5037339;28;20282;-77
2020/12/08 09:24:50;;;;;;;64.93;46.05;;;5.30;99.90;;;;;;5048943;22;20228;-77
2020/12/08 09:27:17;;;;;;;63.92;47.03;;;5.40;99.90;;;;;;5036019;28;20676;-79
2020/12/08 09:29:45;;;;;;;53.55;34.88;;;5.40;99.90;;;;;;5037416;28;20279;-79
2020/12/08 09:32:11;;;;;;;49.45;34.95;;;5.30;99.90;;;;;;5038049;28;20234;-79
2020/12/08 09:34:37;;;;;;;50.67;33.58;;;5.30;99.90;;;;;;5037597;28;20235;-79
2020/12/08 09:37:04;;;;;;;51.72;33.47;;;5.30;99.90;;;;;;5036676;28;20206;-79
2020/12/08 09:39:31;;;;;;;50.85;33.63;;;5.30;99.90;;;;;;5037093;28;20695;-79
2020/12/08 09:41:58;;;;;;;49.42;32.38;;;5.40;99.90;;;;;;5040190;28;20210;-79
2020/12/08 09:44:25;;;;;;;50.88;30.77;;;5.40;99.90;;;;;;5038328;28;20241;-79
2020/12/08 09:46:52;;;;;;;43.42;29.70;;;5.40;99.90;;;;;;5037032;28;20636;-79
2020/12/08 09:49:19;;;;;;;44.88;29.83;;;5.40;99.90;;;;;;5037961;28;20234;-79
2020/12/08 09:51:46;;;;;;;53.72;32.97;;;5.50;99.90;;;;;;5038948;28;20233;-79
2020/12/08 09:54:12;;;;;;;45.17;29.10;;;5.40;99.90;;;;;;5037529;28;20627;-79
2020/12/08 09:56:38;;;;;;;47.13;30.08;;;5.40;99.90;;;;;;5037086;28;20187;-79
2020/12/08 09:59:06;;;;;;;46.72;29.38;;;5.40;99.90;;;;;;5038230;28;20587;-78
2020/12/08 10:01:34;;;;;;;53.33;29.90;;;5.40;99.90;;;;;;5036251;28;20274;-77
2020/12/08 10:04:01;;;;;;;48.03;30.45;;;5.40;99.90;;;;;;5033609;28;20716;-77
2020/12/08 10:06:28;;;;;;;46.08;30.27;;;5.50;99.90;;;;;;5032085;28;20194;-77
2020/12/08 10:08:54;;;;;;;48.28;30.50;;;5.50;99.90;;;;;;5032557;28;20226;-77
2020/12/08 10:11:21;;;;;;;49.45;30.30;;;5.60;99.90;;;;;;5033574;28;20231;-77
2020/12/08 10:13:48;;;;;;;44.03;29.27;;;5.60;99.90;;;;;;5033190;28;20234;-77
2020/12/08 10:16:19;;;;;;;42.20;28.45;;;5.70;99.90;;;;;;5033702;28;20207;-77
2020/12/08 10:18:46;;;;;;;47.60;30.80;;;5.70;99.90;;;;;;5034077;28;20535;-77
2020/12/08 10:21:13;;;;;;;61.17;37.13;;;5.60;99.90;;;;;;5034063;28;20275;-76
2020/12/08 10:23:41;;;;;;;57.95;38.08;;;5.70;99.90;;;;;;5034101;28;20246;-76
2020/12/08 10:26:10;;;;;;;48.33;33.13;;;5.80;99.90;;;;;;5034470;28;20188;-76
2020/12/08 10:28:36;;;;;;;51.30;31.65;;;5.80;99.90;;;;;;5034588;28;20295;-76
2020/12/08 10:31:03;;;;;;;55.67;33.45;;;5.80;99.90;;;;;;5033694;28;20220;-76
2020/12/08 10:33:30;;;;;;;45.65;29.90;;;5.80;99.90;;;;;;5033704;28;20207;-76
2020/12/08 10:35:56;;;;;;;40.75;28.40;;;5.90;99.90;;;;;;5034960;28;20230;-76
2020/12/08 10:38:24;;;;;;;43.25;28.73;;;5.90;99.90;;;;;;5033917;28;20207;-76
2020/12/08 10:40:51;;;;;;;49.55;31.50;;;5.90;99.90;;;;;;5033508;28;20203;-76
2020/12/08 10:43:19;;;;;;;49.95;34.33;;;5.90;99.90;;;;;;5033437;28;20203;-76
2020/12/08 10:45:45;;;;;;;57.03;31.17;;;5.90;99.90;;;;;;5033515;28;20211;-76
2020/12/08 10:48:12;;;;;;;48.08;32.33;;;5.90;99.90;;;;;;5033614;28;20656;-76
2020/12/08 10:50:38;;;;;;;46.65;30.85;;;6.00;99.90;;;;;;5033243;28;20206;-76
2020/12/08 10:53:05;;;;;;;41.95;27.67;;;6.10;99.90;;;;;;5032959;28;20220;-76
2020/12/08 10:55:33;;;;;;;42.67;28.50;;;6.10;99.90;;;;;;5033176;28;20587;-76
2020/12/08 10:57:59;;;;;;;43.78;29.55;;;6.10;99.90;;;;;;5033517;28;20230;-76
2020/12/08 11:00:25;;;;;;;44.92;28.70;;;6.10;99.90;;;;;;5032806;28;20243;-76
2020/12/08 11:02:52;;;;;;;42.45;29.83;;;6.10;99.90;;;;;;5032976;28;20282;-76
2020/12/08 11:05:18;;;;;;;42.95;28.42;;;6.20;99.90;;;;;;5032907;28;20223;-77
2020/12/08 11:07:44;;;;;;;41.35;28.17;;;6.10;99.90;;;;;;5033970;28;20552;-76
2020/12/08 11:10:10;;;;;;;47.58;29.65;;;6.20;99.90;;;;;;5032876;28;20622;-76
2020/12/08 11:12:38;;;;;;;48.72;32.75;;;6.30;99.90;;;;;;5032836;28;20235;-76
2020/12/08 11:15:05;;;;;;;45.47;31.55;;;6.20;99.90;;;;;;5032904;28;20318;-76
2020/12/08 11:17:35;;;;;;;48.67;32.20;;;6.20;99.90;;;;;;5032786;28;20199;-77
2020/12/08 11:20:01;;;;;;;48.30;32.13;;;6.30;99.90;;;;;;5033360;28;20250;-77
2020/12/08 11:22:28;;;;;;;55.08;34.58;;;6.30;99.90;;;;;;5033156;28;20205;-77
2020/12/08 11:24:54;;;;;;;47.17;31.75;;;6.30;99.90;;;;;;5032879;28;20262;-77
2020/12/08 11:27:22;;;;;;;54.70;33.20;;;6.30;99.90;;;;;;5037186;28;20199;-77
2020/12/08 11:29:49;;;;;;;39.40;27.35;;;6.30;99.90;;;;;;5037132;28;20257;-76
2020/12/08 11:32:17;;;;;;;43.97;28.75;;;6.40;99.90;;;;;;5037105;28;20223;-76
2020/12/08 11:34:44;;;;;;;44.47;29.02;;;6.40;99.90;;;;;;5036700;28;20323;-76
2020/12/08 11:37:10;;;;;;;37.45;25.67;;;6.40;99.90;;;;;;5036522;28;20286;-76
2020/12/08 11:39:37;;;;;;;39.97;27.15;;;6.40;99.90;;;;;;5036798;28;20578;-77
2020/12/08 11:42:05;;;;;;;38.45;26.23;;;6.40;99.90;;;;;;5036747;28;20744;-76
2020/12/08 11:44:31;;;;;;;37.22;27.23;;;6.40;99.90;;;;;;5037003;28;20231;-77
2020/12/08 11:46:58;;;;;;;37.85;26.50;;;6.40;99.90;;;;;;5039895;28;20234;-76
2020/12/08 11:49:25;;;;;;;38.70;25.95;;;6.40;99.90;;;;;;5036949;28;20306;-76
2020/12/08 11:51:51;;;;;;;42.60;28.63;;;6.40;99.90;;;;;;5037010;28;20219;-76
2020/12/08 11:54:18;;;;;;;39.15;27.00;;;6.40;99.90;;;;;;5036696;28;20310;-78
2020/12/08 11:56:44;;;;;;;38.80;28.05;;;6.50;99.90;;;;;;5036534;28;20290;-75
2020/12/08 11:59:10;;;;;;;38.65;26.65;;;6.40;99.90;;;;;;5036657;28;20210;-76
2020/12/08 12:01:37;;;;;;;41.50;27.70;;;6.40;99.90;;;;;;5036086;28;20210;-76
2020/12/08 12:04:04;;;;;;;42.47;29.45;;;6.40;99.90;;;;;;5036158;28;20688;-77
2020/12/08 12:06:30;;;;;;;41.80;27.35;;;6.50;99.90;;;;;;5036181;28;20378;-76
2020/12/08 12:08:57;;;;;;;37.15;28.15;;;6.40;99.90;;;;;;5036069;28;20204;-75
2020/12/08 12:11:24;;;;;;;38.00;27.08;;;6.40;99.90;;;;;;5036010;28;20302;-76
2020/12/08 12:13:50;;;;;;;41.33;27.50;;;6.40;99.90;;;;;;5036480;28;20603;-77
2020/12/08 12:16:17;;;;;;;39.88;28.77;;;6.40;99.90;;;;;;5036776;28;20306;-76
2020/12/08 12:18:43;;;;;;;41.63;29.17;;;6.40;99.90;;;;;;5036525;28;20615;-77
2020/12/08 12:21:11;;;;;;;40.03;26.90;;;6.50;99.90;;;;;;5037026;28;20571;-77
2020/12/08 12:23:38;;;;;;;42.92;29.45;;;6.50;99.90;;;;;;5036094;28;20223;-76
2020/12/08 12:26:04;;;;;;;39.55;27.08;;;6.50;99.90;;;;;;5036341;28;20188;-76
2020/12/08 12:28:30;;;;;;;39.70;26.92;;;6.50;99.90;;;;;;5035595;28;20241;-76
2020/12/08 12:30:57;;;;;;;44.55;27.27;;;6.40;99.90;;;;;;5036120;28;20204;-76
2020/12/08 12:33:23;;;;;;;43.08;29.48;;;6.50;99.90;;;;;;5035780;28;20684;-76